Time;durP1;ratioP1;P1;durP2;ratioP2;P2;SDS_P1;SDS_P2;PMS_P1;PMS_P2;Temp;Humidity;BMP_temperature;BMP_pressure;BME280_temperature;BME280_humidity;BME280_pressure;Samples;Min_cycle;Max_cycle;Signal;HPM_P1;HPM_P2
2022/08/31 00:04:01;;;;;;;5.28;4.13;;;18.40;99.90;;;;;;5109375;28;20235;-53
2022/08/31 00:06:32;;;;;;;7.25;4.05;;;18.40;99.90;;;;;;5106560;28;20245;-52
2022/08/31 00:09:00;;;;;;;6.75;4.20;;;18.40;99.90;;;;;;5111302;28;20252;-52
2022/08/31 00:11:29;;;;;;;5.35;4.25;;;18.40;99.90;;;;;;5109997;28;20632;-52
2022/08/31 00:14:00;;;;;;;4.85;3.60;;;18.40;99.90;;;;;;5110027;28;20648;-51
2022/08/31 00:16:33;;;;;;;4.32;3.92;;;18.40;99.90;;;;;;5110317;28;20212;-52
2022/08/31 00:19:02;;;;;;;4.65;3.92;;;18.40;99.90;;;;;;5110852;28;20290;-52
2022/08/31 00:21:32;;;;;;;6.75;3.95;;;18.40;99.90;;;;;;5110242;28;20208;-52
2022/08/31 00:24:00;;;;;;;4.50;3.88;;;18.40;99.90;;;;;;5110442;28;20359;-52
2022/08/31 00:26:28;;;;;;;5.78;3.85;;;18.40;99.90;;;;;;5110229;28;20846;-52
2022/08/31 00:28:56;;;;;;;5.30;4.03;;;18.40;99.90;;;;;;5101750;28;20241;-52
2022/08/31 00:31:24;;;;;;;5.03;4.18;;;18.40;99.90;;;;;;5110415;28;20203;-52
2022/08/31 00:33:53;;;;;;;6.78;3.88;;;18.40;99.90;;;;;;5107951;28;20208;-52
2022/08/31 00:36:24;;;;;;;6.00;4.13;;;18.40;99.90;;;;;;5110472;28;20203;-53
2022/08/31 00:38:55;;;;;;;4.55;3.63;;;18.40;99.90;;;;;;5110080;28;20634;-52
2022/08/31 00:41:26;;;;;;;5.80;3.75;;;18.30;99.90;;;;;;5106807;28;20204;-53
2022/08/31 00:43:56;;;;;;;5.70;3.95;;;18.30;99.90;;;;;;5104819;28;20211;-51
2022/08/31 00:46:28;;;;;;;4.97;3.78;;;18.40;99.90;;;;;;5110590;28;20276;-51
2022/08/31 00:49:01;;;;;;;4.82;3.60;;;18.30;99.90;;;;;;5110027;28;20208;-53
2022/08/31 00:51:32;;;;;;;4.32;3.55;;;18.30;99.90;;;;;;5110044;28;20211;-53
2022/08/31 00:54:02;;;;;;;5.30;3.90;;;18.30;99.90;;;;;;5109694;28;20203;-52
2022/08/31 00:56:31;;;;;;;4.13;3.70;;;18.20;99.90;;;;;;5109286;28;20725;-52
2022/08/31 00:59:00;;;;;;;4.45;4.00;;;18.30;99.90;;;;;;5110280;28;20208;-51
2022/08/31 01:01:29;;;;;;;6.28;3.53;;;18.30;99.90;;;;;;5109558;28;20559;-52
2022/08/31 01:03:59;;;;;;;7.15;3.83;;;18.30;99.90;;;;;;5109775;28;20211;-52
2022/08/31 01:06:27;;;;;;;5.63;3.90;;;18.20;99.90;;;;;;5109636;28;20232;-52
2022/08/31 01:08:57;;;;;;;4.43;3.58;;;18.30;99.90;;;;;;5110128;28;20207;-52
2022/08/31 01:11:27;;;;;;;5.82;3.90;;;18.20;99.90;;;;;;5109124;28;20253;-53
2022/08/31 01:13:56;;;;;;;4.68;3.58;;;18.20;99.90;;;;;;5108967;28;20825;-53
2022/08/31 01:16:29;;;;;;;6.70;3.65;;;18.30;99.90;;;;;;5109713;28;20277;-52
2022/08/31 01:19:00;;;;;;;4.20;3.78;;;18.30;99.90;;;;;;5109926;28;20203;-51
2022/08/31 01:21:32;;;;;;;6.45;3.63;;;18.30;99.90;;;;;;5109557;28;20668;-51
2022/08/31 01:24:03;;;;;;;6.38;3.80;;;18.30;99.90;;;;;;5109645;28;20204;-52
2022/08/31 01:26:32;;;;;;;3.67;3.38;;;18.30;99.90;;;;;;5109532;28;20280;-52
2022/08/31 01:29:04;;;;;;;4.97;3.70;;;18.20;99.90;;;;;;5100939;28;20207;-52
2022/08/31 01:31:34;;;;;;;6.07;3.78;;;18.20;99.90;;;;;;5109913;28;20207;-52
2022/08/31 01:34:04;;;;;;;7.05;3.70;;;18.10;99.90;;;;;;5104598;28;20254;-52
2022/08/31 01:36:33;;;;;;;4.68;3.30;;;18.10;99.90;;;;;;5109520;28;20204;-53
2022/08/31 01:39:03;;;;;;;4.03;3.70;;;18.20;99.90;;;;;;5109651;28;20212;-52
2022/08/31 01:41:31;;;;;;;5.97;3.90;;;18.10;99.90;;;;;;5105073;28;20207;-52
2022/08/31 01:43:59;;;;;;;4.32;3.50;;;18.00;99.90;;;;;;5105259;28;20352;-52
2022/08/31 01:46:27;;;;;;;5.18;3.47;;;18.10;99.90;;;;;;5109356;28;20232;-52
2022/08/31 01:48:55;;;;;;;8.32;3.70;;;18.00;99.90;;;;;;5109502;28;20278;-52
2022/08/31 01:51:23;;;;;;;5.88;4.00;;;18.00;99.90;;;;;;5109939;28;20204;-52
2022/08/31 01:53:52;;;;;;;5.13;3.88;;;18.10;99.90;;;;;;5113728;28;20208;-52
2022/08/31 01:56:25;;;;;;;6.32;3.72;;;18.00;99.90;;;;;;5112766;28;20629;-52
2022/08/31 01:58:53;;;;;;;5.18;3.53;;;18.10;99.90;;;;;;5113299;28;20199;-52
2022/08/31 02:01:24;;;;;;;4.32;3.90;;;18.00;99.90;;;;;;5113172;28;20196;-52
2022/08/31 02:04:00;;;;;;;5.65;3.83;;;18.00;99.90;;;;;;5113055;28;20235;-53
2022/08/31 02:06:28;;;;;;;4.93;3.90;;;17.90;99.90;;;;;;5112255;28;20223;-51
2022/08/31 02:08:56;;;;;;;4.50;3.55;;;17.90;99.90;;;;;;5113250;28;20212;-51
2022/08/31 02:11:25;;;;;;;4.20;3.80;;;17.90;99.90;;;;;;5109177;28;20324;-52
2022/08/31 02:13:54;;;;;;;4.07;3.70;;;17.90;99.90;;;;;;5102480;28;20215;-52
2022/08/31 02:16:22;;;;;;;5.15;4.40;;;17.80;99.90;;;;;;5112991;28;20906;-52
2022/08/31 02:18:50;;;;;;;5.30;4.03;;;17.80;99.90;;;;;;5110007;28;20326;-53
2022/08/31 02:21:18;;;;;;;5.22;3.63;;;17.80;99.90;;;;;;5113217;28;20203;-52
2022/08/31 02:23:46;;;;;;;4.88;3.85;;;17.80;99.90;;;;;;5112153;28;20631;-53
2022/08/31 02:26:15;;;;;;;7.18;4.68;;;17.80;99.90;;;;;;5112609;28;20276;-52
2022/08/31 02:28:44;;;;;;;4.13;3.78;;;17.70;99.90;;;;;;5104168;28;20204;-53
2022/08/31 02:31:12;;;;;;;5.55;4.07;;;17.70;99.90;;;;;;5112793;28;20249;-52
2022/08/31 02:33:41;;;;;;;4.35;3.85;;;17.70;99.90;;;;;;5110295;28;20207;-52
2022/08/31 02:36:09;;;;;;;6.45;4.20;;;17.60;99.90;;;;;;5090112;28;20293;-53
2022/08/31 02:38:39;;;;;;;4.78;3.97;;;17.60;99.90;;;;;;5078821;28;20204;-52
2022/08/31 02:41:09;;;;;;;4.45;3.92;;;17.60;99.90;;;;;;5078019;28;20225;-52
2022/08/31 02:43:37;;;;;;;4.13;3.72;;;17.60;99.90;;;;;;5087009;28;20209;-52
2022/08/31 02:46:06;;;;;;;6.18;3.97;;;17.60;99.90;;;;;;5083408;28;21028;-52
2022/08/31 02:48:35;;;;;;;4.93;4.00;;;17.60;99.90;;;;;;5091958;28;20748;-53
2022/08/31 02:51:07;;;;;;;9.38;3.88;;;17.60;99.90;;;;;;5092231;28;20743;-53
2022/08/31 02:53:36;;;;;;;6.75;3.75;;;17.60;99.90;;;;;;5077797;28;20204;-52
2022/08/31 02:56:04;;;;;;;5.32;4.05;;;17.50;99.90;;;;;;5091820;28;20228;-52
2022/08/31 02:58:32;;;;;;;6.07;3.72;;;17.50;99.90;;;;;;5091551;28;20212;-52
2022/08/31 03:01:01;;;;;;;6.82;3.97;;;17.50;99.90;;;;;;5092603;28;20277;-52
2022/08/31 03:03:30;;;;;;;5.30;4.32;;;17.60;99.90;;;;;;5090565;28;20204;-52
2022/08/31 03:05:58;;;;;;;3.85;3.42;;;17.50;99.90;;;;;;5091811;28;20283;-53
2022/08/31 03:08:26;;;;;;;5.82;4.07;;;17.50;99.90;;;;;;5091725;28;20205;-53
2022/08/31 03:10:57;;;;;;;4.68;3.88;;;17.40;99.90;;;;;;5076904;28;20207;-52
2022/08/31 03:13:25;;;;;;;4.65;4.13;;;17.50;99.90;;;;;;5091816;28;20204;-53
2022/08/31 03:15:53;;;;;;;4.50;4.10;;;17.40;99.90;;;;;;5091449;28;20313;-51
2022/08/31 03:18:22;;;;;;;4.30;3.90;;;17.40;99.90;;;;;;5091456;28;20725;-53
2022/08/31 03:20:51;;;;;;;5.05;4.55;;;17.30;99.90;;;;;;5091275;28;20238;-52
2022/08/31 03:23:19;;;;;;;4.30;3.90;;;17.30;99.90;;;;;;5091319;28;20200;-52
2022/08/31 03:25:47;;;;;;;7.40;4.15;;;17.30;99.90;;;;;;5090769;28;20267;-52
2022/08/31 03:28:15;;;;;;;5.65;4.50;;;17.20;99.90;;;;;;5091635;28;20257;-53
2022/08/31 03:30:44;;;;;;;5.72;4.20;;;17.20;99.90;;;;;;5091293;28;20208;-53
2022/08/31 03:33:13;;;;;;;5.22;4.68;;;17.30;99.90;;;;;;5091143;28;20208;-53
2022/08/31 03:35:42;;;;;;;4.43;4.03;;;17.20;99.90;;;;;;5090628;28;20228;-53
2022/08/31 03:38:14;;;;;;;5.75;4.18;;;17.20;99.90;;;;;;5091144;28;20687;-52
2022/08/31 03:40:43;;;;;;;4.50;3.83;;;17.20;99.90;;;;;;5090900;28;20212;-52
2022/08/31 03:43:12;;;;;;;4.93;4.10;;;17.20;99.90;;;;;;5086866;28;20209;-52
2022/08/31 03:45:41;;;;;;;7.18;4.53;;;17.20;99.90;;;;;;5081284;28;20216;-52
2022/08/31 03:48:10;;;;;;;5.97;4.32;;;17.10;99.90;;;;;;5090346;28;20886;-52
2022/08/31 03:50:41;;;;;;;7.07;4.80;;;17.10;99.90;;;;;;5091131;28;20652;-52
2022/08/31 03:53:10;;;;;;;8.45;5.18;;;17.10;99.90;;;;;;5090355;28;20837;-52
2022/08/31 03:55:42;;;;;;;5.10;4.60;;;17.10;99.90;;;;;;5090131;28;20600;-52
2022/08/31 03:58:11;;;;;;;5.90;4.82;;;17.00;99.90;;;;;;5090753;28;20204;-52
2022/08/31 04:00:40;;;;;;;7.43;4.72;;;17.00;99.90;;;;;;5090563;28;20295;-52
2022/08/31 04:03:08;;;;;;;6.50;4.85;;;16.90;99.90;;;;;;5090527;28;20249;-52
2022/08/31 04:05:41;;;;;;;6.32;4.53;;;16.90;99.90;;;;;;5090237;28;20220;-53
2022/08/31 04:08:09;;;;;;;6.00;5.05;;;16.90;99.90;;;;;;5090691;28;20253;-52
2022/08/31 04:10:41;;;;;;;5.68;4.72;;;16.90;99.90;;;;;;5089724;28;20753;-52
2022/08/31 04:13:09;;;;;;;7.00;5.22;;;16.90;99.90;;;;;;5090279;28;20273;-52
2022/08/31 04:15:37;;;;;;;5.18;4.75;;;17.00;99.90;;;;;;5089274;28;20305;-53
2022/08/31 04:18:06;;;;;;;5.53;5.00;;;17.00;99.90;;;;;;5090088;28;20283;-52
2022/08/31 04:20:35;;;;;;;5.70;5.18;;;17.00;99.90;;;;;;5089401;28;20738;-52
2022/08/31 04:23:03;;;;;;;6.03;5.43;;;17.00;99.90;;;;;;5089551;28;20208;-52
2022/08/31 04:25:31;;;;;;;5.10;4.65;;;17.00;99.90;;;;;;5089397;28;20224;-52
2022/08/31 04:28:02;;;;;;;6.45;4.80;;;16.90;99.90;;;;;;5089872;28;20274;-52
2022/08/31 04:30:31;;;;;;;5.03;4.53;;;16.90;99.90;;;;;;5090124;28;20239;-52
2022/08/31 04:33:00;;;;;;;6.18;5.57;;;16.90;99.90;;;;;;5089700;28;20281;-52
2022/08/31 04:35:29;;;;;;;6.45;4.80;;;16.90;99.90;;;;;;5089955;28;20236;-52
2022/08/31 04:37:57;;;;;;;9.63;5.15;;;16.90;99.90;;;;;;5089586;28;20665;-52
2022/08/31 04:40:26;;;;;;;6.07;5.00;;;16.90;99.90;;;;;;5089849;28;20215;-52
2022/08/31 04:42:54;;;;;;;5.40;4.90;;;16.90;99.90;;;;;;5088252;28;20204;-52
2022/08/31 04:45:23;;;;;;;6.25;4.95;;;16.90;99.90;;;;;;5077168;28;20228;-52
2022/08/31 04:47:51;;;;;;;5.55;4.90;;;16.90;99.90;;;;;;5089961;28;20220;-51
2022/08/31 04:50:20;;;;;;;5.75;5.15;;;16.90;99.90;;;;;;5089722;28;20201;-53
2022/08/31 04:52:49;;;;;;;5.30;4.70;;;16.90;99.90;;;;;;5089587;28;20249;-51
2022/08/31 04:55:31;;;;;;;5.30;4.80;;;16.90;99.90;;;;;;5088737;28;20316;-52
2022/08/31 04:57:59;;;;;;;5.88;5.10;;;16.90;99.90;;;;;;5090174;28;20200;-53
2022/08/31 05:00:28;;;;;;;5.07;4.57;;;16.90;99.90;;;;;;5075416;28;20204;-53
2022/08/31 05:02:56;;;;;;;5.10;4.60;;;17.00;99.90;;;;;;5089265;28;20208;-52
2022/08/31 05:05:25;;;;;;;8.85;5.10;;;17.00;99.90;;;;;;5089407;28;20224;-53
2022/08/31 05:07:53;;;;;;;7.03;4.72;;;17.10;99.90;;;;;;5089779;28;20277;-53
2022/08/31 05:10:23;;;;;;;5.47;4.95;;;17.10;99.90;;;;;;5089495;28;20216;-52
2022/08/31 05:12:51;;;;;;;6.95;4.88;;;17.10;99.90;;;;;;5089020;28;20242;-52
2022/08/31 05:15:19;;;;;;;5.47;4.63;;;17.20;99.90;;;;;;5089232;28;20235;-52
2022/08/31 05:17:49;;;;;;;5.40;4.70;;;17.20;99.90;;;;;;5089579;28;20209;-52
2022/08/31 05:20:17;;;;;;;6.60;4.88;;;17.20;99.90;;;;;;5089436;28;20208;-53
2022/08/31 05:22:45;;;;;;;5.28;4.78;;;17.20;99.90;;;;;;5089308;28;20262;-52
2022/08/31 05:25:13;;;;;;;5.82;4.55;;;17.20;99.90;;;;;;5089227;28;20228;-53
2022/08/31 05:27:41;;;;;;;8.00;5.35;;;17.20;99.90;;;;;;5091771;28;20224;-52
2022/08/31 05:30:11;;;;;;;5.53;4.55;;;17.20;99.90;;;;;;5093289;28;20634;-52
2022/08/31 05:32:39;;;;;;;5.68;4.97;;;17.20;99.90;;;;;;5093018;28;20204;-52
2022/08/31 05:35:09;;;;;;;7.72;4.53;;;17.20;99.90;;;;;;5093054;28;20735;-52
2022/08/31 05:37:38;;;;;;;5.28;4.78;;;17.30;99.90;;;;;;5093223;28;20282;-52
2022/08/31 05:40:07;;;;;;;5.57;4.03;;;17.30;99.90;;;;;;5093184;28;20565;-52
2022/08/31 05:42:35;;;;;;;8.07;5.18;;;17.30;99.90;;;;;;5093252;28;20544;-51
2022/08/31 05:45:04;;;;;;;5.50;4.88;;;17.40;99.90;;;;;;5078455;28;20269;-51
2022/08/31 05:47:32;;;;;;;5.68;4.63;;;17.30;99.90;;;;;;5086133;28;20229;-52
2022/08/31 05:50:00;;;;;;;6.93;4.93;;;17.40;99.90;;;;;;5082263;28;20204;-52
2022/08/31 05:52:29;;;;;;;5.35;4.85;;;17.40;99.90;;;;;;5092603;28;20278;-52
2022/08/31 05:54:58;;;;;;;6.95;4.20;;;17.40;99.90;;;;;;5092733;28;20310;-52
2022/08/31 05:57:26;;;;;;;4.95;4.20;;;17.40;99.90;;;;;;5092760;28;20230;-52
2022/08/31 05:59:54;;;;;;;4.55;4.15;;;17.50;99.90;;;;;;5093198;28;20208;-51
2022/08/31 06:02:26;;;;;;;4.68;4.00;;;17.50;99.90;;;;;;5092078;28;20261;-52
2022/08/31 06:04:57;;;;;;;5.15;4.45;;;17.40;99.90;;;;;;5091608;28;20238;-52
2022/08/31 06:07:25;;;;;;;4.03;3.70;;;17.40;99.90;;;;;;5090867;28;20220;-52
2022/08/31 06:09:54;;;;;;;5.22;4.40;;;17.40;99.90;;;;;;5091740;28;20262;-51
2022/08/31 06:12:24;;;;;;;6.78;4.10;;;17.40;99.90;;;;;;5091646;28;20235;-53
2022/08/31 06:14:54;;;;;;;6.97;4.28;;;17.50;99.90;;;;;;5092169;28;20236;-51
2022/08/31 06:17:23;;;;;;;7.93;4.90;;;17.60;99.90;;;;;;5092419;28;20725;-52
2022/08/31 06:19:51;;;;;;;5.65;5.05;;;17.50;99.90;;;;;;5092040;28;20240;-52
2022/08/31 06:22:19;;;;;;;6.18;4.95;;;17.50;99.90;;;;;;5092608;28;20582;-52
2022/08/31 06:24:47;;;;;;;4.78;4.10;;;17.50;99.90;;;;;;5092443;28;20262;-52
2022/08/31 06:27:17;;;;;;;5.75;4.65;;;17.60;99.90;;;;;;5092305;28;20262;-53
2022/08/31 06:29:45;;;;;;;5.30;4.40;;;17.70;99.90;;;;;;5091784;28;20730;-52
2022/08/31 06:32:14;;;;;;;5.75;5.18;;;17.80;99.90;;;;;;5092162;28;20200;-52
2022/08/31 06:34:43;;;;;;;6.43;5.60;;;17.80;99.90;;;;;;5092194;28;20228;-52
2022/08/31 06:37:12;;;;;;;6.68;5.30;;;17.90;99.90;;;;;;5091248;28;20278;-52
2022/08/31 06:39:46;;;;;;;6.35;4.68;;;17.80;99.90;;;;;;5092100;28;20212;-51
2022/08/31 06:42:16;;;;;;;7.50;5.53;;;17.80;99.90;;;;;;5081080;28;20260;-51
2022/08/31 06:44:44;;;;;;;7.22;5.60;;;17.80;99.90;;;;;;5087345;28;20652;-52
2022/08/31 06:47:12;;;;;;;7.57;5.45;;;17.80;99.90;;;;;;5091560;28;20278;-52
2022/08/31 06:49:40;;;;;;;8.90;6.07;;;17.80;99.90;;;;;;5091559;28;20208;-52
2022/08/31 06:52:08;;;;;;;6.38;5.53;;;17.80;99.90;;;;;;5091271;28;20203;-52
2022/08/31 06:54:36;;;;;;;8.88;5.22;;;17.80;99.90;;;;;;5086576;28;20232;-52
2022/08/31 06:57:04;;;;;;;11.25;5.50;;;18.00;99.90;;;;;;5090231;28;20254;-52
2022/08/31 06:59:34;;;;;;;8.20;5.68;;;18.10;99.90;;;;;;5091368;28;20326;-52
2022/08/31 07:02:02;;;;;;;7.35;5.57;;;18.10;99.90;;;;;;5091913;28;20204;-52
2022/08/31 07:04:33;;;;;;;5.88;5.18;;;18.20;99.90;;;;;;5090722;28;20228;-52
2022/08/31 07:07:02;;;;;;;6.20;5.28;;;18.30;99.90;;;;;;5091843;28;20204;-52
2022/08/31 07:09:30;;;;;;;6.32;5.72;;;18.40;99.90;;;;;;5091218;28;20247;-52
2022/08/31 07:11:58;;;;;;;7.85;5.68;;;18.40;99.90;;;;;;5090953;28;20205;-52
2022/08/31 07:14:27;;;;;;;7.45;5.50;;;18.40;99.90;;;;;;5091200;28;20236;-51
2022/08/31 07:16:58;;;;;;;7.95;6.00;;;18.40;99.90;;;;;;5091439;28;20293;-52
2022/08/31 07:19:27;;;;;;;6.60;5.65;;;18.40;99.90;;;;;;5090883;28;20204;-51
2022/08/31 07:21:56;;;;;;;8.50;6.40;;;18.40;99.90;;;;;;5091338;28;20277;-51
2022/08/31 07:24:28;;;;;;;7.75;6.25;;;18.40;99.90;;;;;;5091556;28;20228;-52
2022/08/31 07:26:59;;;;;;;8.30;6.05;;;18.40;99.90;;;;;;5091071;28;20212;-51
2022/08/31 07:29:31;;;;;;;6.80;6.03;;;18.40;99.90;;;;;;5091175;28;20712;-52
2022/08/31 07:32:01;;;;;;;7.20;5.95;;;18.40;99.90;;;;;;5091077;28;20673;-51
2022/08/31 07:34:32;;;;;;;6.82;6.10;;;18.50;99.90;;;;;;5077267;28;20235;-52
2022/08/31 07:42:38;;;;;;;8.75;6.53;;;19.00;99.90;;;;;;5090949;28;20584;-52
2022/08/31 07:45:11;;;;;;;6.65;5.78;;;19.30;99.90;;;;;;5075964;28;20236;-52
2022/08/31 07:47:45;;;;;;;8.93;6.68;;;19.50;99.90;;;;;;5089824;28;20209;-52
2022/08/31 07:50:15;;;;;;;6.72;6.13;;;19.60;99.90;;;;;;5074943;28;20219;-51
2022/08/31 07:52:46;;;;;;;7.18;5.82;;;19.60;99.90;;;;;;5089599;28;20292;-52
2022/08/31 07:55:16;;;;;;;8.25;6.00;;;19.60;99.90;;;;;;5110623;28;20235;-51
2022/08/31 07:57:45;;;;;;;7.18;6.30;;;19.80;99.90;;;;;;5110979;28;20207;-52
2022/08/31 08:00:17;;;;;;;7.43;6.25;;;19.80;99.90;;;;;;5110802;28;20254;-51
2022/08/31 08:02:50;;;;;;;7.20;6.35;;;19.80;99.90;;;;;;5111246;28;20206;-52
2022/08/31 08:05:25;;;;;;;7.75;6.55;;;19.90;99.90;;;;;;5110705;28;20276;-52
2022/08/31 08:08:04;;;;;;;8.05;6.55;;;19.90;99.90;;;;;;5111029;28;20323;-51
2022/08/31 08:10:40;;;;;;;7.35;6.47;;;20.10;99.90;;;;;;5104701;28;20215;-52
2022/08/31 08:13:11;;;;;;;7.47;6.15;;;20.10;99.90;;;;;;5110932;28;20257;-52
2022/08/31 08:15:39;;;;;;;6.80;6.07;;;20.30;99.90;;;;;;5110804;28;20246;-51
2022/08/31 08:18:12;;;;;;;6.32;5.57;;;20.20;99.90;;;;;;5099599;28;20209;-52
2022/08/31 08:20:40;;;;;;;7.00;6.07;;;20.20;99.90;;;;;;5085339;28;20211;-51
2022/08/31 08:23:11;;;;;;;8.68;6.30;;;20.30;99.90;;;;;;5107542;28;20203;-52
2022/08/31 08:25:41;;;;;;;6.45;5.75;;;20.40;99.90;;;;;;5109668;28;20223;-51
2022/08/31 08:28:16;;;;;;;8.00;5.78;;;20.40;99.90;;;;;;5107942;28;20223;-52
2022/08/31 08:31:05;;;;;;;6.55;5.78;;;20.40;99.90;;;;;;5097930;28;20239;-52
2022/08/31 08:33:35;;;;;;;6.28;5.60;;;20.50;99.90;;;;;;5100225;28;20211;-52
2022/08/31 08:36:06;;;;;;;8.70;5.88;;;20.50;99.90;;;;;;5111105;28;20223;-53
2022/08/31 08:38:37;;;;;;;8.13;5.90;;;20.60;99.90;;;;;;5110615;28;20199;-52
2022/08/31 08:41:10;;;;;;;7.38;5.88;;;20.60;99.90;;;;;;5110020;28;20199;-53
2022/08/31 08:43:41;;;;;;;7.32;5.55;;;20.70;99.90;;;;;;5094373;28;20666;-52
2022/08/31 08:46:13;;;;;;;5.70;4.88;;;20.80;99.90;;;;;;5084155;28;20232;-51
2022/08/31 08:49:10;;;;;;;5.88;4.60;;;21.00;99.90;;;;;;5089751;28;20311;-52
2022/08/31 08:51:39;;;;;;;6.45;5.10;;;21.20;99.90;;;;;;5088932;28;20212;-52
2022/08/31 08:54:10;;;;;;;7.68;5.53;;;21.20;99.90;;;;;;5088357;28;20289;-51
2022/08/31 08:56:45;;;;;;;6.60;5.35;;;21.30;99.90;;;;;;5088347;28;20238;-52
2022/08/31 08:59:14;;;;;;;5.15;4.63;;;21.30;99.90;;;;;;5089781;28;20677;-52
2022/08/31 09:01:49;;;;;;;5.85;5.05;;;21.40;99.90;;;;;;5089396;28;20593;-51
2022/08/31 09:04:38;;;;;;;7.13;5.10;;;21.20;99.90;;;;;;5089583;28;20228;-52
2022/08/31 09:07:29;;;;;;;7.07;5.32;;;21.20;99.90;;;;;;5084344;28;20211;-52
2022/08/31 09:10:05;;;;;;;6.32;5.55;;;21.20;99.90;;;;;;5083132;28;20322;-52
2022/08/31 09:12:43;;;;;;;6.65;5.13;;;21.10;99.90;;;;;;5089056;28;20200;-52
2022/08/31 09:15:34;;;;;;;9.27;5.22;;;21.10;99.90;;;;;;5087847;28;20235;-53
2022/08/31 09:18:13;;;;;;;7.32;5.20;;;21.10;99.90;;;;;;5089063;28;20255;-52
2022/08/31 09:20:43;;;;;;;6.53;4.97;;;21.20;99.90;;;;;;5089215;28;20249;-52
2022/08/31 09:23:12;;;;;;;7.13;5.63;;;21.30;99.90;;;;;;5086474;28;20212;-52
2022/08/31 09:25:51;;;;;;;7.47;5.55;;;21.10;99.90;;;;;;5088801;28;20323;-52
2022/08/31 09:28:34;;;;;;;6.15;5.55;;;21.20;99.90;;;;;;5088867;28;20211;-52
2022/08/31 09:31:03;;;;;;;7.35;4.90;;;21.20;99.90;;;;;;5075279;28;20242;-52
2022/08/31 09:33:33;;;;;;;7.38;5.32;;;21.40;99.90;;;;;;5088070;28;20298;-52
2022/08/31 09:36:17;;;;;;;6.10;5.50;;;21.40;99.90;;;;;;5088671;28;20227;-52
2022/08/31 09:38:46;;;;;;;7.72;5.28;;;21.50;99.90;;;;;;5088475;28;20261;-53
2022/08/31 09:41:29;;;;;;;6.20;4.90;;;21.70;99.90;;;;;;5081665;28;20201;-51
2022/08/31 09:44:25;;;;;;;7.43;5.70;;;21.80;99.90;;;;;;5076913;28;20661;-52
2022/08/31 09:46:58;;;;;;;7.45;4.75;;;21.60;99.90;;;;;;5080652;28;20665;-51
2022/08/31 09:49:28;;;;;;;5.65;4.72;;;21.50;99.90;;;;;;5088835;28;20277;-52
2022/08/31 09:55:12;;;;;;;5.25;4.75;;;21.70;99.90;;;;;;5087768;28;20345;-52
2022/08/31 09:55:20;;;;;;;5.28;4.50;;;21.60;99.90;;;;;;5087376;28;20281;-52
2022/08/31 09:57:57;;;;;;;5.63;5.13;;;21.70;99.90;;;;;;5088228;28;20208;-52
2022/08/31 10:00:31;;;;;;;7.13;5.70;;;21.90;99.90;;;;;;5101403;28;20211;-52
2022/08/31 10:03:18;;;;;;;6.70;4.70;;;21.80;99.90;;;;;;5094521;28;20197;-53
2022/08/31 10:05:49;;;;;;;5.13;4.60;;;21.60;99.90;;;;;;5099878;28;20460;-52
2022/08/31 10:08:39;;;;;;;6.50;4.50;;;21.60;99.90;;;;;;5087393;28;20685;-52
2022/08/31 10:11:12;;;;;;;9.13;5.22;;;21.80;99.90;;;;;;5106598;28;20765;-52
2022/08/31 10:13:44;;;;;;;6.28;4.57;;;21.90;99.90;;;;;;5111247;28;20215;-52
2022/08/31 10:16:24;;;;;;;12.05;5.53;;;22.00;99.90;;;;;;5112566;28;20664;-52
2022/08/31 10:18:59;;;;;;;7.60;5.03;;;21.90;99.90;;;;;;5110576;28;20226;-52
2022/08/31 10:21:41;;;;;;;6.40;5.68;;;22.00;99.90;;;;;;5112490;28;20204;-51
2022/08/31 10:24:27;;;;;;;5.55;4.95;;;22.00;99.90;;;;;;5112571;28;20255;-52
2022/08/31 10:27:06;;;;;;;7.18;4.88;;;21.90;99.90;;;;;;5112731;28;20795;-52
2022/08/31 10:29:42;;;;;;;6.38;5.15;;;21.90;99.90;;;;;;5095886;28;20228;-52
2022/08/31 10:32:23;;;;;;;7.35;5.20;;;21.90;99.90;;;;;;5107927;28;20196;-53
2022/08/31 10:35:04;;;;;;;6.10;4.97;;;22.00;99.90;;;;;;5107406;28;20607;-52
2022/08/31 10:37:48;;;;;;;5.55;5.00;;;22.00;99.90;;;;;;5112097;28;20656;-52
2022/08/31 10:40:21;;;;;;;4.90;4.50;;;22.00;99.90;;;;;;5111657;28;20192;-52
2022/08/31 10:42:58;;;;;;;5.60;5.10;;;22.10;99.90;;;;;;5110064;28;20684;-53
2022/08/31 10:45:28;;;;;;;5.30;4.80;;;22.20;99.90;;;;;;5079659;28;20280;-52
2022/08/31 10:47:57;;;;;;;6.72;5.05;;;22.20;99.90;;;;;;5091563;28;20208;-52
2022/08/31 10:50:38;;;;;;;6.70;4.95;;;22.30;99.90;;;;;;5091533;28;20758;-53
2022/08/31 10:53:21;;;;;;;8.85;5.55;;;22.30;99.90;;;;;;5091224;28;20750;-52
2022/08/31 10:55:57;;;;;;;6.72;5.05;;;22.40;99.90;;;;;;5091336;28;20269;-52
2022/08/31 10:58:36;;;;;;;6.10;5.00;;;22.70;99.90;;;;;;5090575;28;20281;-53
2022/08/31 11:01:11;;;;;;;6.25;4.43;;;22.80;99.90;;;;;;5091667;28;20665;-52
2022/08/31 11:03:59;;;;;;;7.28;5.13;;;23.00;99.90;;;;;;5090960;28;20211;-52
2022/08/31 11:06:38;;;;;;;5.10;4.70;;;23.10;99.90;;;;;;5091845;28;20279;-53
2022/08/31 11:09:13;;;;;;;6.10;4.60;;;23.30;99.90;;;;;;5091283;28;20208;-52
2022/08/31 11:11:46;;;;;;;4.45;4.05;;;23.30;99.90;;;;;;5090473;28;20825;-53
2022/08/31 11:14:39;;;;;;;5.72;4.57;;;23.30;99.90;;;;;;5090852;28;20231;-52
2022/08/31 11:17:30;;;;;;;5.30;4.80;;;23.40;99.90;;;;;;5089877;28;20245;-52
2022/08/31 11:20:21;;;;;;;7.95;5.03;;;23.20;99.90;;;;;;5083854;28;20208;-51
2022/08/31 11:23:25;;;;;;;7.38;4.47;;;23.40;99.90;;;;;;5079441;28;20618;-53
2022/08/31 11:26:40;;;;;;;7.70;4.10;;;23.40;99.90;;;;;;5090170;28;20223;-52
2022/08/31 11:29:21;;;;;;;4.32;3.92;;;23.60;99.90;;;;;;5090848;28;20208;-52
2022/08/31 11:31:49;;;;;;;4.40;3.95;;;23.60;99.90;;;;;;5090757;28;20272;-52
2022/08/31 11:34:25;;;;;;;4.97;4.35;;;23.80;99.90;;;;;;5090376;28;20219;-53
2022/08/31 11:36:55;;;;;;;7.10;3.90;;;24.10;99.90;;;;;;5107584;28;20203;-52
2022/08/31 11:39:35;;;;;;;4.32;3.92;;;24.20;99.90;;;;;;5111279;28;20212;-51
2022/08/31 11:42:09;;;;;;;4.43;3.72;;;24.10;99.90;;;;;;5081407;28;20287;-53
2022/08/31 11:45:09;;;;;;;5.38;3.65;;;24.10;99.90;;;;;;5090675;28;20730;-51
2022/08/31 11:47:43;;;;;;;4.57;3.75;;;24.30;99.90;;;;;;5111200;28;20203;-52
2022/08/31 11:50:27;;;;;;;4.70;3.25;;;24.60;99.90;;;;;;5083697;28;20236;-52
2022/08/31 11:52:58;;;;;;;4.22;3.33;;;24.80;99.90;;;;;;5106389;28;20208;-52
2022/08/31 11:55:29;;;;;;;3.95;3.28;;;24.70;99.90;;;;;;5105378;28;20224;-52
2022/08/31 11:58:21;;;;;;;3.63;3.30;;;24.80;99.90;;;;;;5108066;28;20252;-52
2022/08/31 12:00:58;;;;;;;5.32;3.40;;;24.60;99.90;;;;;;5110755;28;20652;-53
2022/08/31 12:03:49;;;;;;;3.70;3.40;;;24.90;99.90;;;;;;5110313;28;20630;-52
2022/08/31 12:07:06;;;;;;;5.57;3.50;;;25.00;99.90;;;;;;5108811;28;20616;-52
2022/08/31 12:10:14;;;;;;;5.30;3.65;;;24.90;99.90;;;;;;5100748;28;20672;-52
2022/08/31 12:13:06;;;;;;;4.55;3.65;;;24.50;99.90;;;;;;5110501;28;20264;-52
2022/08/31 12:15:48;;;;;;;4.00;3.70;;;24.50;99.90;;;;;;5109789;28;20232;-52
2022/08/31 12:18:31;;;;;;;3.50;3.00;;;24.30;99.90;;;;;;5100967;28;20572;-52
2022/08/31 12:24:11;;;;;;;5.38;3.30;;;24.00;99.90;;;;;;5110166;28;20203;-52
2022/08/31 12:26:58;;;;;;;4.10;3.63;;;24.00;99.90;;;;;;5109584;28;20730;-51
2022/08/31 12:29:29;;;;;;;4.20;3.42;;;23.90;99.90;;;;;;5104380;28;20257;-52
2022/08/31 12:32:14;;;;;;;4.35;3.95;;;24.10;99.90;;;;;;5107013;28;20687;-52
2022/08/31 12:34:48;;;;;;;4.22;3.50;;;24.10;99.90;;;;;;5101271;28;20219;-52
2022/08/31 12:37:23;;;;;;;4.03;3.58;;;23.90;99.90;;;;;;5109502;28;20207;-52
2022/08/31 12:40:18;;;;;;;3.83;3.40;;;23.70;99.90;;;;;;5109772;28;20298;-52
2022/08/31 12:42:57;;;;;;;5.13;4.00;;;23.70;99.90;;;;;;5108655;28;20302;-53
2022/08/31 12:45:54;;;;;;;4.00;3.70;;;23.40;99.90;;;;;;5078142;28;20704;-52
2022/08/31 12:48:37;;;;;;;4.53;3.70;;;23.30;99.90;;;;;;5085274;28;20211;-52
2022/08/31 12:51:16;;;;;;;5.03;3.60;;;23.40;99.90;;;;;;5089178;28;20553;-52
2022/08/31 12:54:02;;;;;;;4.60;3.80;;;23.50;99.90;;;;;;5081838;28;20269;-52
2022/08/31 12:56:38;;;;;;;6.95;3.92;;;23.30;99.90;;;;;;5089231;28;20196;-52
2022/08/31 12:59:22;;;;;;;4.93;4.18;;;23.20;99.90;;;;;;5089184;28;20249;-52
2022/08/31 13:01:51;;;;;;;4.18;3.83;;;23.10;99.90;;;;;;5088671;28;20196;-52
2022/08/31 13:04:20;;;;;;;5.30;4.07;;;23.10;99.90;;;;;;5084677;28;20269;-52
2022/08/31 13:06:50;;;;;;;4.30;3.90;;;23.00;99.90;;;;;;5088479;28;20208;-53
2022/08/31 13:09:27;;;;;;;5.88;4.10;;;23.10;99.90;;;;;;5089245;28;20196;-52
2022/08/31 13:11:57;;;;;;;4.20;3.90;;;23.10;99.90;;;;;;5088013;28;20273;-52
2022/08/31 13:14:30;;;;;;;5.15;3.95;;;23.30;99.90;;;;;;5089078;28;20232;-52
2022/08/31 13:17:04;;;;;;;6.22;4.20;;;23.50;99.90;;;;;;5088909;28;20766;-52
2022/08/31 13:19:34;;;;;;;4.28;3.88;;;23.60;99.90;;;;;;5088159;28;20199;-52
2022/08/31 13:22:07;;;;;;;4.60;4.18;;;23.70;99.90;;;;;;5089217;28;20196;-52
2022/08/31 13:24:39;;;;;;;3.90;3.60;;;23.70;99.90;;;;;;5079920;28;20307;-53
2022/08/31 13:27:16;;;;;;;9.48;4.15;;;23.60;99.90;;;;;;5088138;28;20204;-52
2022/08/31 13:29:45;;;;;;;5.88;4.30;;;23.60;99.90;;;;;;5089111;28;20620;-53